Acworth, Georgia
Current Conditions -  °F | °C
As of 12:47 PM on Friday 24 Oct 2014 (Local Time) from KRYY Reporting Station
Scattered Clouds Scattered Clouds  
Wind Chill: 18°   Ceiling: Unl
Heat Index: 18°   Visibility: 10mi
Dew Point:   Wind: 0mph
Humidity: 49%   Direction: NA
Pressure: 30.1"   Gusts: NA
Location:  34.06°N, 84.68°W
Report Text: KRYY 241647Z 00000KT 10SM SCT200 18/07 A3010
Loading
Personal Weather Stations






























Interactive Weather Map
Tropical Storm Tracking
New forecast layout! Learn more

10-Day Weather Forecast

Advertisements
Track Severe Weather on mobile